Terminal Aerodrome Forecast
Issued by NWS

Home | Current Version | Previous Version | Text Only | Print | Product List | Glossary On
Versions: 1 2 3 4 5 6 7 8 9 10 11 12 13 14 15 16 17 18 19
000
FTUS46 KMFR 192345
TAFRBG
TAF
KRBG 192345Z 2000/2024 VRB02KT P6SM SCT200 WS020/20025KT
     FM200300 VRB03KT P6SM -RA SCT015 SCT050 OVC060 WS020/21030KT
     FM200700 17006KT 5SM RA BR BKN007 OVC030 WS020/24040KT
     FM200900 17005KT 3SM RA BR BKN005 OVC010 WS020/24040KT
     FM201700 VRB03KT 4SM -RA BR OVC007
     FM202100 VRB03KT 5SM -RA BR OVC015=

USA.gov is the U.S. government's official web portal to all federal, state and local government web resources and services.